createdAt,value
2022-10-23T00:00:34.616Z,9.93
2022-10-23T00:03:37.107Z,9.90
2022-10-23T00:06:39.876Z,9.88
2022-10-23T00:09:42.378Z,9.79
2022-10-23T00:12:45.172Z,9.83
2022-10-23T00:15:47.780Z,9.83
2022-10-23T00:18:50.155Z,9.81
2022-10-23T00:21:52.570Z,9.82
2022-10-23T00:24:54.920Z,9.76
2022-10-23T00:27:57.279Z,9.75
2022-10-23T00:31:03.146Z,9.77
2022-10-23T00:34:08.389Z,9.73
2022-10-23T00:37:11.262Z,9.74
2022-10-23T00:40:13.780Z,9.74
2022-10-23T00:43:22.506Z,9.71
2022-10-23T00:46:25.065Z,9.69
2022-10-23T00:49:28.349Z,9.66
2022-10-23T00:52:31.047Z,9.67
2022-10-23T00:55:34.110Z,9.51
2022-10-23T00:58:36.858Z,9.49
2022-10-23T01:01:39.944Z,9.42
2022-10-23T01:04:42.923Z,9.40
2022-10-23T01:08:05.238Z,9.45
2022-10-23T01:11:22.248Z,9.67
2022-10-23T01:15:10.466Z,9.73
2022-10-23T01:18:35.111Z,9.75
2022-10-23T01:21:37.459Z,9.82
2022-10-23T01:24:56.663Z,9.77
2022-10-23T01:28:09.378Z,9.77
2022-10-23T01:31:18.060Z,9.88
2022-10-23T01:34:29.618Z,9.79
2022-10-23T01:37:58.613Z,9.93
2022-10-23T01:41:07.602Z,9.90
2022-10-23T01:44:27.891Z,9.87
2022-10-23T01:47:34.085Z,9.79
2022-10-23T01:50:43.555Z,9.68
2022-10-23T01:53:49.388Z,9.54
2022-10-23T01:56:53.079Z,9.45
2022-10-23T02:00:05.848Z,9.36
2022-10-23T02:03:13.792Z,9.42
2022-10-23T02:06:16.938Z,9.71
2022-10-23T02:09:19.492Z,9.86
2022-10-23T02:12:40.691Z,9.85
2022-10-23T02:15:53.612Z,10.04
2022-10-23T02:18:59.285Z,10.18
2022-10-23T02:22:10.327Z,10.10
2022-10-23T02:25:21.974Z,10.03
2022-10-23T02:28:28.933Z,10.00
2022-10-23T02:31:34.799Z,9.91
2022-10-23T02:34:37.482Z,9.87
2022-10-23T02:37:40.415Z,9.70
2022-10-23T02:40:46.046Z,9.78
2022-10-23T02:43:59.768Z,9.79
2022-10-23T02:47:11.347Z,9.85
2022-10-23T02:50:35.393Z,9.80
2022-10-23T02:53:52.094Z,9.45
2022-10-23T02:57:05.879Z,8.97
2022-10-23T03:00:13.587Z,8.74
2022-10-23T03:03:40.596Z,8.62
2022-10-23T03:06:43.230Z,8.51
2022-10-23T03:09:51.947Z,8.47
2022-10-23T03:12:54.339Z,8.60
2022-10-23T03:15:56.823Z,8.65
2022-10-23T03:19:02.275Z,8.75
2022-10-23T03:22:05.579Z,8.91
2022-10-23T03:25:08.525Z,8.93
2022-10-23T03:28:11.616Z,9.07
2022-10-23T03:31:14.183Z,9.11
2022-10-23T03:34:16.671Z,9.17
2022-10-23T03:37:19.215Z,9.13
2022-10-23T03:40:21.586Z,9.16
2022-10-23T03:43:24.011Z,9.12
2022-10-23T03:46:26.571Z,8.93
2022-10-23T03:49:30.172Z,8.86
2022-10-23T03:52:38.773Z,8.71
2022-10-23T03:55:41.263Z,8.69
2022-10-23T03:58:43.795Z,8.63
2022-10-23T04:01:46.792Z,8.28
2022-10-23T04:04:49.299Z,8.14
2022-10-23T04:07:51.792Z,8.13
2022-10-23T04:10:55.035Z,7.87
2022-10-23T04:14:07.288Z,7.75
2022-10-23T04:17:13.430Z,7.71
2022-10-23T04:20:16.011Z,7.73
2022-10-23T04:23:18.571Z,7.82
2022-10-23T04:26:22.156Z,7.83
2022-10-23T04:29:24.816Z,7.95
2022-10-23T04:32:27.314Z,7.93
2022-10-23T04:35:29.948Z,7.99
2022-10-23T04:38:32.633Z,8.00
2022-10-23T04:41:38.845Z,8.01
2022-10-23T04:44:41.530Z,8.05
2022-10-23T04:47:44.044Z,8.05
2022-10-23T04:50:56.391Z,8.03
2022-10-23T04:54:21.360Z,7.97
2022-10-23T04:57:38.059Z,7.91
2022-10-23T05:00:43.059Z,7.87
2022-10-23T05:03:45.464Z,7.73
2022-10-23T05:06:48.469Z,7.71
2022-10-23T05:10:12.661Z,7.74
2022-10-23T05:13:30.920Z,7.71
2022-10-23T05:16:48.338Z,7.69
2022-10-23T05:19:56.331Z,7.76
2022-10-23T05:23:00.736Z,7.57
2022-10-23T05:26:05.055Z,7.35
2022-10-23T05:29:07.889Z,7.14
2022-10-23T05:32:15.179Z,7.09
2022-10-23T05:35:23.202Z,7.08
2022-10-23T05:38:29.299Z,7.04
2022-10-23T05:41:31.971Z,7.00
2022-10-23T05:44:35.446Z,7.01
2022-10-23T05:48:05.812Z,7.02
2022-10-23T05:52:01.078Z,6.98
2022-10-23T05:55:26.709Z,6.96
2022-10-23T05:58:52.227Z,7.04
2022-10-23T06:02:23.858Z,7.15
2022-10-23T06:05:32.610Z,7.19
2022-10-23T06:08:59.503Z,7.22
2022-10-23T06:12:02.837Z,7.35
2022-10-23T06:15:07.875Z,7.50
2022-10-23T06:18:30.103Z,7.77
2022-10-23T06:21:41.380Z,7.92
2022-10-23T06:24:46.129Z,8.07
2022-10-23T06:27:54.976Z,8.26
2022-10-23T06:30:59.132Z,8.51
2022-10-23T06:34:01.913Z,8.66
2022-10-23T06:37:06.297Z,8.84
2022-10-23T06:40:20.098Z,9.06
2022-10-23T06:43:50.319Z,9.36
2022-10-23T06:47:02.389Z,9.48
2022-10-23T06:50:43.005Z,9.67
2022-10-23T06:53:52.798Z,9.59
2022-10-23T06:57:34.155Z,9.40
2022-10-23T07:00:40.194Z,9.36
2022-10-23T07:03:42.644Z,9.21
2022-10-23T07:06:45.257Z,9.18
2022-10-23T07:09:47.700Z,9.13
2022-10-23T07:13:00.875Z,9.14
2022-10-23T07:16:19.622Z,9.21
2022-10-23T07:19:22.083Z,9.35
2022-10-23T07:22:36.682Z,9.49
2022-10-23T07:25:46.338Z,9.63
2022-10-23T07:28:56.274Z,9.77
2022-10-23T07:32:01.006Z,9.92
2022-10-23T07:35:35.568Z,10.10
2022-10-23T07:38:45.392Z,10.21
2022-10-23T07:41:48.039Z,10.39
2022-10-23T07:44:50.480Z,10.52
2022-10-23T07:47:53.131Z,10.64
2022-10-23T07:51:01.495Z,10.76
2022-10-23T07:54:04.339Z,10.92
2022-10-23T07:57:35.616Z,11.07
2022-10-23T08:00:52.024Z,11.23
2022-10-23T08:04:02.345Z,11.50
2022-10-23T08:07:05.752Z,11.58
2022-10-23T08:10:13.888Z,11.66
2022-10-23T08:13:22.279Z,11.71
2022-10-23T08:16:35.430Z,11.80
2022-10-23T08:19:46.461Z,11.93
2022-10-23T08:22:51.444Z,11.94
2022-10-23T08:26:00.517Z,12.00
2022-10-23T08:29:05.841Z,12.08
2022-10-23T08:32:08.252Z,12.26
2022-10-23T08:35:23.860Z,12.32
2022-10-23T08:38:26.483Z,12.42
2022-10-23T08:41:38.363Z,12.46
2022-10-23T08:44:55.331Z,12.50
2022-10-23T08:48:06.706Z,12.56
2022-10-23T08:51:35.954Z,12.56
2022-10-23T08:55:17.315Z,12.67
2022-10-23T08:58:32.017Z,12.70
2022-10-23T09:01:42.013Z,12.75
2022-10-23T09:04:47.763Z,12.74
2022-10-23T09:08:08.998Z,12.89
2022-10-23T09:11:20.723Z,12.93
2022-10-23T09:14:57.238Z,12.91
2022-10-23T09:18:07.839Z,12.95
2022-10-23T09:21:10.792Z,12.99
2022-10-23T09:24:17.798Z,13.00
2022-10-23T09:27:20.590Z,13.06
2022-10-23T09:30:42.841Z,13.07
2022-10-23T09:33:57.500Z,13.22
2022-10-23T09:37:17.455Z,13.28
2022-10-23T09:40:30.128Z,13.36
2022-10-23T09:43:32.696Z,13.26
2022-10-23T09:47:12.060Z,13.36
2022-10-23T09:50:20.786Z,13.49
2022-10-23T09:53:26.269Z,13.64
2022-10-23T09:56:34.077Z,13.70
2022-10-23T09:59:36.443Z,13.58
2022-10-23T10:02:38.912Z,13.48
2022-10-23T10:06:04.113Z,13.33
2022-10-23T10:09:15.515Z,13.35
2022-10-23T10:12:37.564Z,13.26
2022-10-23T10:15:50.707Z,13.25
2022-10-23T10:19:02.183Z,13.25
2022-10-23T10:22:10.549Z,13.13
2022-10-23T10:25:22.045Z,13.19
2022-10-23T10:28:43.175Z,13.34
2022-10-23T10:32:11.978Z,13.46
2022-10-23T10:35:25.508Z,13.57
2022-10-23T10:38:50.016Z,13.55
2022-10-23T10:41:58.606Z,13.68
2022-10-23T10:45:01.622Z,13.83
2022-10-23T10:48:19.201Z,13.80
2022-10-23T10:52:28.708Z,13.82
2022-10-23T10:55:39.454Z,13.80
2022-10-23T10:58:48.281Z,13.75
2022-10-23T11:01:59.926Z,13.58
2022-10-23T11:05:14.158Z,13.53
2022-10-23T11:08:22.427Z,13.51
2022-10-23T11:11:32.099Z,13.53
2022-10-23T11:14:35.241Z,13.30
2022-10-23T11:17:44.128Z,13.35
2022-10-23T11:20:46.728Z,13.51
2022-10-23T11:24:16.972Z,13.55
2022-10-23T11:27:30.634Z,13.50
2022-10-23T11:30:40.274Z,13.48
2022-10-23T11:34:14.642Z,13.90
2022-10-23T11:37:22.236Z,14.00
2022-10-23T11:40:25.712Z,14.11
2022-10-23T11:43:31.347Z,14.26
2022-10-23T11:46:36.807Z,14.20
2022-10-23T11:49:39.233Z,14.45
2022-10-23T11:53:46.537Z,14.19
2022-10-23T11:57:10.436Z,14.01
2022-10-23T12:00:23.446Z,14.25
2022-10-23T12:03:32.385Z,14.51
2022-10-23T12:06:45.267Z,14.47
2022-10-23T12:10:01.932Z,14.46
2022-10-23T12:13:06.467Z,14.57
2022-10-23T12:16:08.882Z,14.23
2022-10-23T12:19:20.857Z,14.28
2022-10-23T12:22:28.137Z,14.38
2022-10-23T12:25:58.279Z,14.59
2022-10-23T12:29:25.566Z,14.66
2022-10-23T12:32:34.167Z,14.92
2022-10-23T12:36:07.942Z,15.05
2022-10-23T12:39:29.545Z,15.31
2022-10-23T12:42:32.030Z,15.29
2022-10-23T12:45:40.068Z,15.37
2022-10-23T12:48:50.586Z,15.38
2022-10-23T12:51:57.490Z,15.49
2022-10-23T12:55:00.741Z,15.33
2022-10-23T12:58:03.080Z,15.26
2022-10-23T13:01:06.898Z,15.37
2022-10-23T13:04:24.399Z,15.32
2022-10-23T13:07:29.751Z,15.24
2022-10-23T13:10:35.060Z,15.17
2022-10-23T13:13:41.773Z,15.23
2022-10-23T13:16:44.122Z,15.38
2022-10-23T13:19:50.204Z,15.19
2022-10-23T13:23:07.707Z,15.22
2022-10-23T13:26:30.934Z,15.25
2022-10-23T13:29:34.702Z,15.19
2022-10-23T13:32:37.055Z,15.24
2022-10-23T13:35:39.386Z,15.08
2022-10-23T13:38:44.117Z,15.09
2022-10-23T13:41:48.703Z,15.07
2022-10-23T13:44:53.139Z,14.83
2022-10-23T13:47:59.207Z,14.71
2022-10-23T13:51:22.248Z,14.62
2022-10-23T13:57:35.189Z,14.39
2022-10-23T14:00:38.737Z,14.51
2022-10-23T14:03:41.067Z,14.43
2022-10-23T14:06:43.945Z,14.40
2022-10-23T14:09:46.343Z,14.39
2022-10-23T14:12:53.513Z,14.31
2022-10-23T14:15:56.342Z,14.25
2022-10-23T14:18:59.197Z,14.11
2022-10-23T14:22:01.545Z,14.25
2022-10-23T14:25:05.015Z,14.19
2022-10-23T14:28:07.625Z,14.06
2022-10-23T14:31:15.750Z,13.78
2022-10-23T14:34:18.312Z,13.79
2022-10-23T14:37:21.423Z,13.84
2022-10-23T14:40:24.128Z,13.87
2022-10-23T14:43:26.715Z,13.85
2022-10-23T14:46:29.525Z,13.81
2022-10-23T14:49:32.414Z,13.82
2022-10-23T14:52:34.898Z,13.81
2022-10-23T14:55:37.639Z,13.60
2022-10-23T14:58:40.172Z,13.65
2022-10-23T15:01:45.798Z,13.62
2022-10-23T15:04:50.409Z,13.67
2022-10-23T15:07:52.802Z,13.61
2022-10-23T15:11:00.319Z,13.53
2022-10-23T15:14:02.988Z,13.45
2022-10-23T15:17:05.426Z,13.50
2022-10-23T15:20:08.834Z,13.48
2022-10-23T15:23:12.787Z,13.49
2022-10-23T15:26:23.179Z,13.47
2022-10-23T15:29:25.724Z,13.58
2022-10-23T15:32:29.394Z,13.59
2022-10-23T15:35:32.090Z,13.54
2022-10-23T15:38:34.475Z,13.51
2022-10-23T15:41:39.196Z,13.51
2022-10-23T15:44:41.775Z,13.35
2022-10-23T15:47:44.711Z,13.23
2022-10-23T15:50:47.289Z,13.02
2022-10-23T15:53:49.752Z,12.81
2022-10-23T15:56:54.251Z,12.62
2022-10-23T15:59:57.227Z,12.55
2022-10-23T16:02:59.595Z,12.54
2022-10-23T16:06:13.766Z,12.70
2022-10-23T16:09:16.839Z,12.65
2022-10-23T16:12:19.792Z,12.68
2022-10-23T16:15:22.195Z,12.80
2022-10-23T16:18:24.643Z,12.77
2022-10-23T16:21:30.475Z,12.78
2022-10-23T16:24:33.469Z,12.72
2022-10-23T16:27:35.832Z,12.75
2022-10-23T16:30:42.441Z,12.94
2022-10-23T16:33:44.903Z,12.85
2022-10-23T16:36:47.421Z,12.77
2022-10-23T16:40:16.347Z,12.74
2022-10-23T16:43:51.144Z,12.79
2022-10-23T16:47:13.768Z,12.91
2022-10-23T16:50:17.508Z,12.96
2022-10-23T16:53:20.184Z,12.87
2022-10-23T16:56:31.306Z,12.89
2022-10-23T16:59:33.987Z,12.83
2022-10-23T17:02:37.496Z,12.81
2022-10-23T17:05:40.223Z,12.83
2022-10-23T17:08:43.318Z,12.87
2022-10-23T17:11:46.477Z,12.78
2022-10-23T17:14:49.261Z,12.89
2022-10-23T17:17:51.845Z,12.91
2022-10-23T17:20:58.131Z,12.87
2022-10-23T17:27:09.723Z,12.91
2022-10-23T17:30:12.949Z,12.90
2022-10-23T17:33:16.055Z,12.90
2022-10-23T17:36:20.687Z,12.90
2022-10-23T17:39:26.403Z,12.84
2022-10-23T17:42:29.499Z,12.76
2022-10-23T17:45:34.824Z,12.75
2022-10-23T17:48:39.558Z,12.75
2022-10-23T17:51:42.151Z,12.71
2022-10-23T17:54:44.862Z,12.70
2022-10-23T17:57:52.951Z,12.70
2022-10-23T18:00:55.556Z,12.65
2022-10-23T18:04:01.907Z,12.58
2022-10-23T18:07:05.522Z,12.60
2022-10-23T18:10:08.218Z,12.52
2022-10-23T18:13:11.137Z,12.48
2022-10-23T18:16:14.383Z,12.47
2022-10-23T18:19:18.490Z,12.50
2022-10-23T18:22:21.659Z,12.49
2022-10-23T18:25:24.310Z,12.55
2022-10-23T18:28:28.146Z,12.47
2022-10-23T18:31:31.043Z,12.44
2022-10-23T18:34:33.707Z,12.41
2022-10-23T18:37:41.217Z,12.42
2022-10-23T18:40:44.812Z,12.34
2022-10-23T18:43:47.470Z,12.31
2022-10-23T18:46:51.748Z,12.27
2022-10-23T18:49:54.538Z,12.23
2022-10-23T18:52:57.372Z,12.37
2022-10-23T18:56:00.802Z,12.21
2022-10-23T18:59:06.290Z,12.08
2022-10-23T19:02:10.843Z,12.06
2022-10-23T19:05:13.785Z,12.18
2022-10-23T19:08:16.491Z,12.01
2022-10-23T19:11:22.978Z,11.81
2022-10-23T19:14:28.680Z,11.87
2022-10-23T19:17:32.717Z,11.73
2022-10-23T19:20:36.051Z,11.65
2022-10-23T19:23:41.036Z,11.60
2022-10-23T19:26:44.121Z,11.49
2022-10-23T19:29:50.246Z,11.52
2022-10-23T19:32:53.031Z,11.33
2022-10-23T19:35:55.618Z,11.13
2022-10-23T19:38:58.294Z,11.19
2022-10-23T19:42:01.037Z,11.11
2022-10-23T19:45:05.799Z,11.07
2022-10-23T19:48:08.466Z,11.02
2022-10-23T19:51:13.176Z,11.03
2022-10-23T19:54:15.830Z,11.07
2022-10-23T19:57:22.478Z,11.11
2022-10-23T20:00:28.083Z,11.00
2022-10-23T20:03:30.684Z,10.96
2022-10-23T20:06:34.825Z,10.97
2022-10-23T20:09:38.020Z,10.93
2022-10-23T20:12:44.494Z,11.01
2022-10-23T20:15:54.355Z,11.06
2022-10-23T20:18:57.734Z,11.11
2022-10-23T20:22:00.714Z,11.20
2022-10-23T20:25:03.895Z,11.23
2022-10-23T20:28:08.227Z,11.31
2022-10-23T20:31:15.015Z,11.28
2022-10-23T20:34:19.101Z,11.30
2022-10-23T20:37:21.698Z,11.37
2022-10-23T20:40:24.355Z,11.49
2022-10-23T20:43:27.451Z,11.71
2022-10-23T20:46:30.406Z,11.60
2022-10-23T20:49:33.174Z,11.54
2022-10-23T20:52:35.558Z,11.51
2022-10-23T20:55:42.672Z,11.53
2022-10-23T20:58:45.462Z,11.56
2022-10-23T21:01:52.887Z,11.58
2022-10-23T21:04:55.580Z,11.62
2022-10-23T21:07:57.962Z,11.77
2022-10-23T21:11:00.816Z,11.66
2022-10-23T21:14:03.747Z,11.70
2022-10-23T21:17:06.334Z,11.69
2022-10-23T21:20:09.207Z,11.63
2022-10-23T21:23:11.566Z,11.72
2022-10-23T21:26:15.183Z,11.71
2022-10-23T21:29:19.128Z,11.79
2022-10-23T21:32:22.171Z,11.83
2022-10-23T21:35:26.547Z,11.85
2022-10-23T21:38:32.056Z,11.87
2022-10-23T21:41:34.522Z,11.93
2022-10-23T21:44:41.994Z,11.87
2022-10-23T21:47:44.530Z,11.90
2022-10-23T21:50:47.191Z,11.92
2022-10-23T21:53:51.526Z,11.95
2022-10-23T21:56:54.237Z,11.96
2022-10-23T21:59:56.783Z,12.00
2022-10-23T22:02:59.136Z,12.03
2022-10-23T22:06:01.571Z,12.07
2022-10-23T22:09:05.055Z,12.11
2022-10-23T22:12:12.255Z,12.07
2022-10-23T22:15:14.688Z,12.13
2022-10-23T22:18:17.039Z,12.12
2022-10-23T22:21:26.156Z,12.15
2022-10-23T22:24:28.554Z,12.14
2022-10-23T22:27:30.922Z,12.13
2022-10-23T22:30:36.735Z,12.00
2022-10-23T22:33:39.071Z,11.99
2022-10-23T22:36:41.493Z,11.89
2022-10-23T22:39:43.893Z,11.83
2022-10-23T22:42:46.956Z,11.86
2022-10-23T22:45:49.429Z,11.88
2022-10-23T22:48:52.544Z,11.77
2022-10-23T22:51:55.061Z,11.71
2022-10-23T22:54:57.530Z,11.75
2022-10-23T22:57:59.972Z,11.82
2022-10-23T23:01:04.736Z,11.81
2022-10-23T23:04:19.581Z,11.84
2022-10-23T23:07:29.764Z,11.79
2022-10-23T23:10:32.207Z,11.74
2022-10-23T23:13:35.264Z,11.79
2022-10-23T23:16:37.694Z,11.74
2022-10-23T23:19:40.220Z,11.64
2022-10-23T23:22:42.803Z,11.75
2022-10-23T23:25:48.300Z,11.65
2022-10-23T23:28:55.155Z,11.63
2022-10-23T23:31:58.129Z,11.68
2022-10-23T23:35:01.082Z,11.64
2022-10-23T23:38:07.673Z,11.51
2022-10-23T23:41:15.259Z,11.58
2022-10-23T23:44:17.629Z,11.66
2022-10-23T23:47:20.127Z,11.72
2022-10-23T23:50:22.762Z,11.52
2022-10-23T23:53:25.220Z,11.57
2022-10-23T23:56:28.121Z,11.57
2022-10-23T23:59:30.475Z,11.61
